Time;durP1;ratioP1;P1;durP2;ratioP2;P2;SDS_P1;SDS_P2;PMS_P1;PMS_P2;Temp;Humidity;BMP_temperature;BMP_pressure;BME280_temperature;BME280_humidity;BME280_pressure;Samples;Min_cycle;Max_cycle;Signal;HPM_P1;HPM_P2
2023/05/16 00:02:02;;;;;;;11.40;10.30;;;12.30;99.90;;;-141.84;73.28;20084.16;5048142;28;20604;-70
2023/05/16 00:04:31;;;;;;;11.53;10.43;;;12.30;99.90;;;-141.84;73.52;20098.38;5054349;28;20216;-69
2023/05/16 00:07:00;;;;;;;11.20;10.10;;;12.20;99.90;;;-141.84;73.80;20063.81;5068222;28;20225;-70
2023/05/16 00:09:28;;;;;;;11.80;10.57;;;12.20;99.90;;;-141.84;73.89;20084.16;5068314;28;20413;-70
2023/05/16 00:11:56;;;;;;;11.47;10.40;;;12.10;99.90;;;-141.84;73.87;20071.97;5068492;28;20283;-70
2023/05/16 00:14:25;;;;;;;12.93;11.47;;;12.10;99.90;;;-141.84;72.48;20102.44;5068296;28;20208;-70
2023/05/16 00:16:56;;;;;;;11.27;10.27;;;12.20;99.90;;;-141.84;73.25;20090.25;5068178;28;20244;-71
2023/05/16 00:19:25;;;;;;;13.40;10.90;;;12.20;99.90;;;-141.84;73.93;20063.81;5068224;28;20256;-71
2023/05/16 00:21:53;;;;;;;11.43;10.43;;;12.10;99.90;;;-141.84;73.41;20096.34;5070032;28;20608;-69
2023/05/16 00:24:21;;;;;;;11.00;10.00;;;12.20;99.90;;;-141.84;72.92;20074.00;5072131;28;20227;-70
2023/05/16 00:26:49;;;;;;;12.40;11.23;;;12.20;99.90;;;-141.84;72.73;20082.13;5046198;28;20225;-71
2023/05/16 00:29:18;;;;;;;12.40;11.20;;;12.20;99.90;;;-141.84;72.32;20090.25;5051563;28;20213;-70
2023/05/16 00:31:46;;;;;;;12.90;10.93;;;12.30;99.90;;;-141.84;72.82;20132.94;5051585;28;20202;-69
2023/05/16 00:34:15;;;;;;;12.00;10.77;;;12.20;99.90;;;-141.84;73.26;20084.16;5055083;28;20213;-70
2023/05/16 00:36:44;;;;;;;12.07;10.90;;;12.20;99.90;;;-141.84;73.83;20063.81;5071679;28;20201;-70
2023/05/16 00:39:13;;;;;;;12.20;10.80;;;12.10;99.90;;;-141.84;74.03;20053.66;5040728;28;20232;-70
2023/05/16 00:41:41;;;;;;;13.07;11.77;;;12.10;99.90;;;-141.84;74.33;20049.59;5031363;28;20213;-69
2023/05/16 00:44:09;;;;;;;12.37;11.13;;;12.00;99.90;;;-141.84;74.49;20017.09;5031408;28;20201;-70
2023/05/16 00:46:38;;;;;;;12.13;11.13;;;11.90;99.90;;;-141.84;75.10;20021.16;5032070;28;20577;-70
2023/05/16 00:49:06;;;;;;;12.17;11.07;;;11.90;99.90;;;-141.84;75.05;20031.31;5033618;28;20257;-70
2023/05/16 00:51:38;;;;;;;12.27;11.07;;;11.80;99.90;;;-141.84;75.02;20037.41;5039465;28;20198;-69
2023/05/16 00:54:07;;;;;;;12.40;11.30;;;11.80;99.90;;;-141.84;74.54;20015.03;5053999;28;20205;-70
2023/05/16 00:56:35;;;;;;;12.07;10.93;;;11.80;99.90;;;-141.84;75.10;20025.22;5053682;28;20197;-71
2023/05/16 00:59:04;;;;;;;14.57;13.13;;;11.80;99.90;;;-141.84;75.40;19994.72;5054322;28;20229;-71
2023/05/16 01:01:35;;;;;;;14.20;12.70;;;11.70;99.90;;;-141.84;75.51;19998.78;5053548;28;20263;-70
2023/05/16 01:04:04;;;;;;;13.50;12.20;;;11.70;99.90;;;-141.84;75.29;19984.56;5055820;28;20284;-69
2023/05/16 01:06:33;;;;;;;13.00;11.80;;;11.70;99.90;;;-141.84;75.28;19988.63;5073366;28;20247;-69
2023/05/16 01:09:03;;;;;;;12.60;11.50;;;11.70;99.90;;;-141.84;75.68;19976.44;5073670;28;20224;-70
2023/05/16 01:11:40;;;;;;;13.30;11.73;;;11.60;99.90;;;-141.84;75.57;19976.44;5073538;28;20193;-70
2023/05/16 01:14:26;;;;;;;12.87;11.53;;;11.60;99.90;;;-141.84;76.00;20015.03;5073700;28;20185;-70
2023/05/16 01:17:07;;;;;;;12.90;11.70;;;11.60;99.90;;;-141.84;75.96;19994.72;5073304;28;20181;-70
2023/05/16 01:20:05;;;;;;;12.60;11.50;;;11.60;99.90;;;-141.84;75.40;20025.22;5073666;28;20192;-71
2023/05/16 01:22:52;;;;;;;12.30;11.07;;;11.50;99.90;;;-141.84;75.43;19988.63;5073340;28;20185;-70
2023/05/16 01:25:39;;;;;;;12.20;11.10;;;11.50;99.90;;;-141.84;75.41;19996.75;5033031;28;20186;-70
2023/05/16 01:28:10;;;;;;;12.13;10.93;;;11.60;99.90;;;-141.84;75.47;19980.50;5032989;28;20753;-69
2023/05/16 01:30:41;;;;;;;12.67;11.47;;;11.50;99.90;;;-141.84;75.75;19958.13;5033041;28;20217;-70
2023/05/16 01:33:10;;;;;;;13.70;11.37;;;11.50;99.90;;;-141.84;75.49;19996.75;5032754;28;20198;-70
2023/05/16 01:35:47;;;;;;;12.43;11.23;;;11.40;99.90;;;-141.84;74.71;19941.88;5064817;28;20212;-69
2023/05/16 01:38:25;;;;;;;12.97;11.67;;;11.50;99.90;;;-141.84;74.97;19984.56;5045587;28;20197;-70
2023/05/16 01:41:04;;;;;;;12.57;11.27;;;11.50;99.90;;;-141.84;75.02;19968.31;5032745;28;20186;-70
2023/05/16 01:43:44;;;;;;;13.17;11.17;;;11.40;99.90;;;-141.84;74.72;19960.16;5032766;28;20190;-70
2023/05/16 01:46:16;;;;;;;14.23;11.13;;;11.40;99.90;;;-141.84;73.89;19990.66;5032559;28;20187;-70
2023/05/16 01:48:53;;;;;;;12.40;11.20;;;11.40;99.90;;;-141.84;73.39;19992.69;5032580;28;20228;-71
2023/05/16 01:51:29;;;;;;;11.73;10.53;;;11.40;99.90;;;-141.84;73.30;19947.97;5036401;28;20208;-70
2023/05/16 01:54:06;;;;;;;11.93;10.80;;;11.40;99.90;;;-141.84;73.30;19978.47;5052499;28;20649;-71
2023/05/16 01:56:37;;;;;;;12.73;11.53;;;11.40;99.90;;;-141.84;72.65;20002.84;5052590;28;20186;-70
2023/05/16 01:59:08;;;;;;;11.47;10.37;;;11.40;99.90;;;-141.84;71.01;20008.94;5052386;28;20193;-71
2023/05/16 02:01:36;;;;;;;12.30;10.97;;;11.50;99.90;;;-141.84;70.40;19986.59;5052235;28;20558;-72
2023/05/16 02:04:05;;;;;;;14.40;10.67;;;11.50;99.90;;;-141.84;69.55;20006.91;5054814;28;20201;-70
2023/05/16 02:06:33;;;;;;;13.57;10.73;;;11.50;99.90;;;-141.84;69.21;20000.81;5072096;28;20734;-70
2023/05/16 02:09:01;;;;;;;11.37;10.17;;;11.60;99.90;;;-141.84;69.78;20006.91;5072341;28;20224;-71
2023/05/16 02:11:30;;;;;;;11.63;10.43;;;11.50;99.90;;;-141.84;69.92;20015.03;5071933;28;20692;-71
2023/05/16 02:13:58;;;;;;;14.20;11.00;;;11.40;99.90;;;-141.84;69.34;20004.88;5072365;28;20208;-70
2023/05/16 02:16:30;;;;;;;12.10;10.90;;;11.40;99.90;;;-141.84;69.36;20000.81;5072429;28;20559;-70
2023/05/16 02:18:58;;;;;;;13.50;11.40;;;11.30;99.90;;;-141.84;69.22;19964.25;5071987;28;20699;-70
2023/05/16 02:21:26;;;;;;;13.03;11.47;;;11.30;99.90;;;-141.84;70.26;20000.81;5032957;28;20209;-71
2023/05/16 02:23:54;;;;;;;13.67;12.03;;;11.30;99.90;;;-141.84;70.61;19964.25;5032311;28;20198;-70
2023/05/16 02:26:23;;;;;;;15.33;13.83;;;11.10;99.90;;;-141.84;71.09;19956.09;5031864;28;20209;-71
2023/05/16 02:28:51;;;;;;;15.70;14.10;;;11.10;99.90;;;-141.84;71.63;19937.81;5032556;28;20256;-71
2023/05/16 02:31:28;;;;;;;16.63;13.90;;;10.90;99.90;;;-141.84;72.06;19964.25;5043762;28;20217;-71
2023/05/16 02:33:57;;;;;;;17.60;14.50;;;10.90;99.90;;;-141.84;71.39;19970.34;5053320;28;20251;-69
2023/05/16 02:36:26;;;;;;;16.80;15.00;;;10.90;99.90;;;-141.84;72.14;19903.25;5071708;28;20265;-71
2023/05/16 02:38:54;;;;;;;17.87;14.93;;;10.80;99.90;;;-141.84;72.31;19891.06;5072123;28;20219;-71
2023/05/16 02:41:23;;;;;;;20.07;17.70;;;10.70;99.90;;;-141.84;72.41;19887.00;5071652;28;20296;-70
2023/05/16 02:43:51;;;;;;;23.83;19.50;;;10.70;99.90;;;-141.84;72.06;19925.63;5071368;28;20197;-70
2023/05/16 02:46:29;;;;;;;27.50;21.93;;;10.70;99.90;;;-141.84;72.45;19913.44;5071399;28;20690;-71
2023/05/16 02:48:58;;;;;;;29.10;22.97;;;10.70;99.90;;;-141.84;72.69;19893.09;5066092;28;20590;-71
2023/05/16 02:51:28;;;;;;;26.10;22.67;;;10.60;99.90;;;-141.84;73.17;19909.34;5051884;28;20194;-71
2023/05/16 02:53:58;;;;;;;25.93;22.47;;;10.50;99.90;;;-141.84;73.19;19911.41;5053920;28;20201;-70
2023/05/16 02:56:27;;;;;;;28.43;22.23;;;10.50;99.90;;;-141.84;73.31;19931.72;5054758;28;20190;-70
2023/05/16 02:58:55;;;;;;;29.93;23.40;;;10.60;99.90;;;-141.84;72.48;19903.25;5054157;28;20683;-70
2023/05/16 03:01:24;;;;;;;28.53;22.80;;;10.60;99.90;;;-141.84;72.81;19909.34;5053674;28;20201;-71
2023/05/16 03:03:54;;;;;;;29.43;23.67;;;10.60;99.90;;;-141.84;73.05;19911.41;5052605;28;20206;-71
2023/05/16 03:06:22;;;;;;;27.60;23.60;;;10.60;99.90;;;-141.84;73.13;19880.91;5045032;28;20213;-71
2023/05/16 03:08:50;;;;;;;26.80;23.13;;;10.60;99.90;;;-141.84;73.42;19899.19;5032272;28;20226;-70
2023/05/16 03:11:20;;;;;;;29.93;23.23;;;10.60;99.90;;;-141.84;72.17;19903.25;5032903;28;20205;-69
2023/05/16 03:13:49;;;;;;;26.93;22.83;;;10.60;99.90;;;-141.84;72.89;19919.53;5032912;28;20202;-71
2023/05/16 03:16:17;;;;;;;27.57;22.60;;;10.60;99.90;;;-141.84;72.35;19870.75;5040561;28;20658;-72
2023/05/16 03:18:45;;;;;;;25.70;22.63;;;10.50;99.90;;;-141.84;72.51;19903.25;5052255;28;20202;-71
2023/05/16 03:21:15;;;;;;;27.20;22.23;;;10.50;99.90;;;-141.84;73.43;19866.69;5051316;28;20197;-70
2023/05/16 03:23:44;;;;;;;26.40;23.10;;;10.50;99.90;;;-141.84;72.92;19884.97;5051618;28;20701;-71
2023/05/16 03:26:12;;;;;;;28.47;24.47;;;10.50;99.90;;;-141.84;73.06;19868.72;5044250;28;20209;-72
2023/05/16 03:28:40;;;;;;;25.07;22.10;;;10.40;99.90;;;-141.84;71.80;19909.34;5051852;28;20229;-71
2023/05/16 03:31:08;;;;;;;26.13;23.20;;;10.40;99.90;;;-141.84;71.71;19907.31;5052325;28;20646;-70
2023/05/16 03:33:36;;;;;;;28.50;22.90;;;10.50;99.90;;;-141.84;71.06;19931.72;5052455;28;20314;-71
2023/05/16 03:36:05;;;;;;;25.90;22.33;;;10.50;99.90;;;-141.84;70.92;19893.09;5069462;28;20291;-73
2023/05/16 03:38:35;;;;;;;24.67;21.10;;;10.50;99.90;;;-141.84;71.91;19897.16;5071498;28;20197;-71
2023/05/16 03:41:03;;;;;;;26.77;22.17;;;10.50;99.90;;;-141.84;71.95;19897.16;5071300;28;20200;-71
2023/05/16 03:43:31;;;;;;;28.07;23.00;;;10.40;99.90;;;-141.84;72.01;19868.72;5070997;28;20204;-71
2023/05/16 03:46:01;;;;;;;25.13;21.70;;;10.40;99.90;;;-141.84;71.55;19893.09;5071145;28;20204;-70
2023/05/16 03:48:30;;;;;;;25.17;22.20;;;10.40;99.90;;;-141.84;70.68;19921.56;5069436;28;20257;-71
2023/05/16 03:50:58;;;;;;;25.57;21.37;;;10.50;99.90;;;-141.84;71.09;19915.47;5050871;28;20206;-70
2023/05/16 03:53:26;;;;;;;25.97;21.23;;;10.40;99.90;;;-141.84;70.79;19876.84;5051222;28;20204;-72
2023/05/16 03:55:56;;;;;;;25.83;21.00;;;10.40;99.90;;;-141.84;70.73;19917.50;5053558;28;20205;-72
2023/05/16 03:58:24;;;;;;;23.13;20.50;;;10.40;99.90;;;-141.84;71.04;19923.59;5054845;28;20194;-71
2023/05/16 04:00:52;;;;;;;25.60;21.77;;;10.50;99.90;;;-141.84;70.39;19923.59;5055211;28;20197;-72
2023/05/16 04:03:26;;;;;;;23.43;19.83;;;10.60;99.90;;;-141.84;70.13;19941.88;5054955;28;20214;-71
2023/05/16 04:05:55;;;;;;;25.10;21.10;;;10.50;99.90;;;-141.84;70.81;19895.13;5071933;28;20204;-70
2023/05/16 04:08:23;;;;;;;23.53;21.03;;;10.60;99.90;;;-141.84;69.94;19931.72;5074768;28;20251;-71
2023/05/16 04:10:51;;;;;;;21.83;18.93;;;10.60;99.90;;;-141.84;70.32;19919.53;5075003;28;20200;-71
2023/05/16 04:13:21;;;;;;;21.73;19.43;;;10.70;99.90;;;-141.84;68.73;19939.84;5044907;28;20214;-70
2023/05/16 04:15:49;;;;;;;22.77;19.40;;;10.70;99.90;;;-141.84;68.59;19970.34;5034936;28;20210;-72
2023/05/16 04:18:18;;;;;;;20.63;18.40;;;10.80;99.90;;;-141.84;68.78;19954.06;5034467;28;20260;-71
2023/05/16 04:20:47;;;;;;;22.60;18.20;;;10.80;99.90;;;-141.84;68.10;20000.81;5034813;28;20724;-71
2023/05/16 04:23:15;;;;;;;20.37;18.17;;;11.00;99.90;;;-141.84;67.75;20000.81;5041468;28;20209;-71
2023/05/16 04:25:43;;;;;;;20.50;17.87;;;11.00;99.90;;;-141.84;68.34;19974.41;5049457;28;20223;-72
2023/05/16 04:28:12;;;;;;;20.23;18.03;;;11.00;99.90;;;-141.84;67.84;19998.78;5034606;28;20564;-72
2023/05/16 04:30:41;;;;;;;21.67;17.67;;;11.00;99.90;;;-141.84;68.15;19954.06;5034345;28;20221;-71
2023/05/16 04:33:10;;;;;;;20.53;17.80;;;11.00;99.90;;;-141.84;67.52;20015.03;5033819;28;20209;-71
2023/05/16 04:35:38;;;;;;;20.67;17.17;;;11.10;99.90;;;-141.84;66.96;20004.88;5048688;28;20217;-69
2023/05/16 04:38:07;;;;;;;18.87;16.87;;;11.10;99.90;;;-141.84;67.42;19968.31;5054283;28;20202;-72
2023/05/16 04:40:35;;;;;;;19.97;17.30;;;11.10;99.90;;;-141.84;68.05;19968.31;5053931;28;20198;-71
2023/05/16 04:43:03;;;;;;;19.53;17.43;;;11.00;99.90;;;-141.84;67.44;20017.09;5054143;28;20201;-71
2023/05/16 04:45:31;;;;;;;19.63;17.00;;;11.10;99.90;;;-141.84;67.08;20008.94;5054044;28;20201;-71
2023/05/16 04:48:03;;;;;;;20.47;17.83;;;11.20;99.90;;;-141.84;66.92;20000.81;5053890;28;20196;-70
2023/05/16 04:50:32;;;;;;;21.03;18.17;;;11.20;99.90;;;-141.84;67.40;19984.56;5034952;28;20704;-70
2023/05/16 04:53:00;;;;;;;21.47;18.27;;;11.10;99.90;;;-141.84;67.10;20013.00;5051370;28;20209;-72
2023/05/16 04:55:28;;;;;;;22.47;18.50;;;11.20;99.90;;;-141.84;67.64;20037.41;5053618;28;20616;-71
2023/05/16 04:57:57;;;;;;;22.47;17.50;;;11.20;99.90;;;-141.84;67.79;19992.69;5053896;28;20307;-70
2023/05/16 05:00:25;;;;;;;19.53;17.43;;;11.30;99.90;;;-141.84;67.57;20000.81;5053682;28;20201;-72
2023/05/16 05:02:54;;;;;;;19.47;17.37;;;11.20;99.90;;;-141.84;67.37;20010.97;5053861;28;20597;-57
2023/05/16 05:05:24;;;;;;;21.07;17.70;;;11.30;99.90;;;-141.84;67.42;20025.22;5053457;28;20224;-57
2023/05/16 05:07:53;;;;;;;18.60;16.53;;;11.30;99.90;;;-141.84;66.99;19988.63;5053144;28;20236;-57
2023/05/16 05:10:21;;;;;;;16.20;14.60;;;11.30;99.90;;;-141.84;66.05;20031.31;5053494;28;20221;-54
2023/05/16 05:12:49;;;;;;;16.17;14.43;;;11.40;99.90;;;-141.84;67.05;20021.16;5053578;28;20206;-56
2023/05/16 05:15:18;;;;;;;16.17;14.47;;;11.40;99.90;;;-141.84;65.54;20053.66;5053313;28;20299;-58
2023/05/16 05:17:46;;;;;;;14.90;12.83;;;11.50;99.90;;;-141.84;66.06;20047.56;5053145;28;20665;-54
2023/05/16 05:20:14;;;;;;;14.33;12.87;;;11.60;99.90;;;-141.84;66.52;20019.13;5053401;28;20247;-56
2023/05/16 05:22:44;;;;;;;14.33;12.17;;;11.50;99.90;;;-141.84;66.07;20057.72;5053158;28;20206;-57
2023/05/16 05:25:12;;;;;;;13.53;11.63;;;11.60;99.90;;;-141.84;65.94;20061.78;5052393;28;20205;-55
2023/05/16 05:27:41;;;;;;;12.60;11.30;;;11.50;99.90;;;-141.84;66.29;20047.56;5033266;28;20706;-57
2023/05/16 05:30:10;;;;;;;13.33;11.73;;;11.50;99.90;;;-141.84;66.02;20049.59;5033274;28;20229;-57
2023/05/16 05:32:38;;;;;;;12.03;10.57;;;11.50;99.90;;;-141.84;65.99;20055.69;5033468;28;20202;-56
2023/05/16 05:35:07;;;;;;;11.63;10.43;;;11.50;99.90;;;-141.84;66.21;20059.75;5043368;28;20224;-70
2023/05/16 05:37:35;;;;;;;11.97;9.80;;;11.50;99.90;;;-141.84;66.42;20053.66;5052985;28;20686;-71
2023/05/16 05:40:07;;;;;;;10.17;9.13;;;11.50;99.90;;;-141.84;65.42;20106.50;5052968;28;20201;-73
2023/05/16 05:42:35;;;;;;;11.33;9.43;;;11.70;99.90;;;-141.84;65.88;20076.03;5053304;28;20185;-71
2023/05/16 05:45:06;;;;;;;9.63;8.23;;;11.60;99.90;;;-141.84;65.95;20061.78;5053443;28;20197;-71
2023/05/16 05:47:34;;;;;;;9.67;8.13;;;11.60;99.90;;;-141.84;66.59;20045.53;5052961;28;20292;-70
2023/05/16 05:50:05;;;;;;;9.13;8.23;;;11.60;99.90;;;-141.84;65.49;20061.78;5037905;28;20760;-70
2023/05/16 05:52:33;;;;;;;11.43;7.73;;;11.70;99.90;;;-141.84;65.60;20092.28;5046764;28;20646;-71
2023/05/16 05:55:01;;;;;;;8.33;7.30;;;11.70;99.90;;;-141.84;66.25;20057.72;5053020;28;20224;-71
2023/05/16 05:57:30;;;;;;;7.63;6.83;;;11.70;99.90;;;-141.84;64.63;20126.84;5052744;28;20252;-71
2023/05/16 05:59:59;;;;;;;10.37;6.70;;;11.90;99.90;;;-141.84;65.17;20065.84;5052371;28;20669;-72
2023/05/16 06:02:28;;;;;;;8.53;6.50;;;11.70;99.90;;;-141.84;65.64;20076.03;5052271;28;20673;-71
2023/05/16 06:04:56;;;;;;;6.67;6.07;;;11.70;99.90;;;-141.84;65.88;20071.97;5046458;28;20749;-71
2023/05/16 06:07:24;;;;;;;7.10;6.40;;;11.70;99.90;;;-141.84;66.19;20092.28;5032803;28;20209;-71
2023/05/16 06:09:53;;;;;;;7.40;6.60;;;11.80;99.90;;;-141.84;65.16;20065.84;5032496;28;20222;-72
2023/05/16 06:12:21;;;;;;;6.27;5.67;;;11.90;99.90;;;-141.84;65.78;20088.22;5033026;28;20213;-71
2023/05/16 06:14:50;;;;;;;7.37;6.33;;;11.80;99.90;;;-141.84;65.46;20096.34;5033349;28;20210;-72
2023/05/16 06:17:18;;;;;;;9.60;6.33;;;11.90;99.90;;;-141.84;65.01;20086.19;5032702;28;20697;-71
2023/05/16 06:19:47;;;;;;;7.93;6.90;;;11.80;99.90;;;-141.84;65.11;20096.34;5047227;28;20197;-71
2023/05/16 06:22:15;;;;;;;6.47;5.83;;;11.90;99.90;;;-141.84;64.13;20147.16;5051932;28;20699;-71
2023/05/16 06:24:43;;;;;;;6.50;5.80;;;12.00;99.90;;;-141.84;63.52;20128.88;5051965;28;20665;-73
2023/05/16 06:27:11;;;;;;;6.10;5.60;;;12.10;99.90;;;-141.84;63.61;20128.88;5035511;28;20469;-71
2023/05/16 06:29:39;;;;;;;6.50;5.60;;;12.00;99.90;;;-141.84;63.78;20130.91;5032517;28;20222;-71
2023/05/16 06:32:09;;;;;;;7.47;5.53;;;12.00;99.90;;;-141.84;63.55;20126.84;5032228;28;20724;-71
2023/05/16 06:34:40;;;;;;;6.67;5.77;;;12.10;99.90;;;-141.84;63.92;20153.25;5038825;28;20205;-71
2023/05/16 06:37:08;;;;;;;4.63;4.30;;;12.10;99.90;;;-141.84;63.05;20155.28;5051881;28;20201;-71
2023/05/16 06:39:37;;;;;;;5.77;4.43;;;12.10;99.90;;;-141.84;62.72;20139.03;5051856;28;20205;-72
2023/05/16 06:42:05;;;;;;;4.80;4.30;;;12.10;99.90;;;-141.84;63.30;20139.03;5051568;28;20658;-70
2023/05/16 06:44:34;;;;;;;5.13;4.37;;;12.10;99.90;;;-141.84;63.21;20175.63;5051670;28;20244;-72
2023/05/16 06:47:02;;;;;;;6.50;4.60;;;12.20;99.90;;;-141.84;63.17;20179.69;5051502;28;20368;-71
2023/05/16 06:49:32;;;;;;;6.63;4.97;;;12.30;99.90;;;-141.84;62.11;20159.34;5051781;28;20560;-70
2023/05/16 06:52:00;;;;;;;4.90;4.37;;;12.30;99.90;;;-141.84;62.04;20187.81;5051466;28;20649;-71
2023/05/16 06:54:28;;;;;;;8.03;4.70;;;12.40;99.90;;;-141.84;62.63;20181.72;5051835;28;20304;-71
2023/05/16 06:56:56;;;;;;;5.80;5.20;;;12.40;99.90;;;-141.84;63.04;20163.41;5051340;28;20330;-71
2023/05/16 06:59:24;;;;;;;6.27;4.23;;;12.30;99.90;;;-141.84;63.33;20151.22;5051803;28;20300;-70
2023/05/16 07:01:55;;;;;;;6.13;4.23;;;12.30;99.90;;;-141.84;63.14;20183.75;5051267;28;20197;-71
2023/05/16 07:04:23;;;;;;;4.73;4.30;;;12.30;99.90;;;-141.84;62.38;20183.75;5051353;28;20215;-72
2023/05/16 07:06:53;;;;;;;6.37;4.53;;;12.40;99.90;;;-141.84;62.82;20197.97;5051262;28;20197;-71
2023/05/16 07:09:21;;;;;;;5.43;4.37;;;12.40;99.90;;;-141.84;63.14;20151.22;5051490;28;20584;-71
2023/05/16 07:11:50;;;;;;;6.57;4.43;;;12.30;99.90;;;-141.84;62.66;20153.25;5051780;28;20213;-71
2023/05/16 07:14:18;;;;;;;5.40;4.60;;;12.40;99.90;;;-141.84;62.83;20193.91;5051576;28;20296;-72
2023/05/16 07:16:46;;;;;;;6.33;4.43;;;12.40;99.90;;;-141.84;64.00;20195.94;5051124;28;20285;-58
2023/05/16 07:19:15;;;;;;;4.60;3.70;;;12.40;99.90;;;-141.84;64.01;20185.78;5051409;28;20201;-57
2023/05/16 07:21:43;;;;;;;5.97;4.40;;;12.40;99.90;;;-141.84;62.60;20197.97;5050939;28;20735;-54
2023/05/16 07:24:13;;;;;;;6.17;4.70;;;12.50;99.90;;;-141.84;62.04;20238.63;5051047;28;20579;-57
2023/05/16 07:26:41;;;;;;;4.10;3.70;;;12.50;99.90;;;-141.84;62.66;20202.03;5038631;28;20319;-56
2023/05/16 07:29:09;;;;;;;4.50;4.10;;;12.60;99.90;;;-141.84;62.47;20195.94;5031055;28;20206;-57
2023/05/16 07:31:37;;;;;;;5.90;4.27;;;12.50;99.90;;;-141.84;62.38;20236.59;5034350;28;20484;-57
2023/05/16 07:34:06;;;;;;;4.70;4.10;;;12.60;99.90;;;-141.84;62.43;20238.63;5037356;28;20202;-56
2023/05/16 07:36:34;;;;;;;5.90;4.33;;;12.60;99.90;;;-141.84;62.63;20204.06;5054800;28;20244;-57
2023/05/16 07:39:04;;;;;;;4.33;3.93;;;12.70;99.90;;;-141.84;61.60;20232.53;5054906;28;20236;-56
2023/05/16 07:41:34;;;;;;;7.20;4.37;;;12.70;99.90;;;-141.84;62.03;20214.22;5054888;28;20698;-57
2023/05/16 07:44:02;;;;;;;4.63;4.03;;;12.70;99.90;;;-141.84;61.57;20254.88;5055462;28;20243;-58
2023/05/16 07:46:30;;;;;;;5.87;4.00;;;12.70;99.90;;;-141.84;61.98;20220.34;5054637;28;20638;-56
2023/05/16 07:48:58;;;;;;;5.13;4.63;;;12.70;99.90;;;-141.84;61.48;20244.72;5054626;28;20225;-57
2023/05/16 07:51:27;;;;;;;4.88;4.47;;;12.80;99.90;;;-141.84;61.47;20260.97;5054726;28;20324;-57
2023/05/16 07:53:56;;;;;;;5.63;4.55;;;12.80;99.90;;;-141.84;61.22;20244.72;5054828;28;20229;-57
2023/05/16 07:56:24;;;;;;;4.93;4.23;;;12.90;99.90;;;-141.84;61.93;20234.56;5054459;28;20637;-57
2023/05/16 07:58:54;;;;;;;5.47;4.73;;;12.90;99.90;;;-141.84;61.62;20293.50;5054543;28;20292;-57
2023/05/16 08:01:22;;;;;;;4.83;4.33;;;12.90;99.90;;;-141.84;60.49;20358.56;5055101;28;20641;-57
2023/05/16 08:03:52;;;;;;;4.93;4.43;;;13.20;99.90;;;-141.84;60.16;20419.53;5055089;28;20284;-56
2023/05/16 08:06:20;;;;;;;4.30;3.90;;;13.50;99.90;;;-141.84;59.17;20480.50;5054930;28;20280;-59
2023/05/16 08:08:48;;;;;;;5.38;3.90;;;13.90;99.90;;;-141.84;56.87;20545.56;5055023;28;20224;-58
2023/05/16 08:11:18;;;;;;;5.15;3.92;;;14.20;99.90;;;-141.84;55.14;20602.47;5055034;28;20217;-60
2023/05/16 08:13:46;;;;;;;4.03;3.47;;;14.50;99.90;;;-141.84;55.34;20582.16;5054851;28;20304;-58
2023/05/16 08:16:16;;;;;;;4.22;2.85;;;14.60;99.90;;;-141.84;55.96;20612.63;5054196;28;20689;-57
2023/05/16 08:18:44;;;;;;;3.58;3.00;;;14.50;99.90;;;-141.84;56.00;20525.22;5054618;28;20209;-57
2023/05/16 08:21:15;;;;;;;2.80;2.55;;;14.50;99.90;;;-141.84;57.00;20504.91;5054179;28;20208;-57
2023/05/16 08:23:43;;;;;;;4.03;2.88;;;14.50;99.90;;;-141.84;57.24;20482.53;5054321;28;20193;-60
2023/05/16 08:26:12;;;;;;;3.25;2.95;;;14.20;99.90;;;-141.84;58.04;20468.31;5045807;28;20210;-58
2023/05/16 08:28:40;;;;;;;5.85;3.38;;;14.10;99.90;;;-141.84;57.97;20443.91;5033370;28;20245;-55
2023/05/16 08:31:08;;;;;;;3.65;3.05;;;14.10;99.90;;;-141.84;57.38;20506.94;5033235;28;20262;-57
2023/05/16 08:33:38;;;;;;;3.25;2.80;;;14.10;99.90;;;-141.84;56.44;20549.63;5034416;28;20209;-58
2023/05/16 08:36:07;;;;;;;2.90;2.40;;;14.30;99.90;;;-141.84;56.02;20580.13;5052042;28;20233;-57
2023/05/16 08:38:35;;;;;;;3.28;2.88;;;14.40;99.90;;;-141.84;54.63;20657.34;5053449;28;20292;-57
2023/05/16 08:41:05;;;;;;;3.35;2.30;;;14.80;99.90;;;-141.84;53.79;20704.13;5053372;28;20727;-57
2023/05/16 08:43:34;;;;;;;2.65;2.45;;;15.10;99.90;;;-141.84;53.54;20710.22;5053454;28;20270;-58
2023/05/16 08:46:02;;;;;;;3.30;2.45;;;15.20;99.90;;;-141.84;53.46;20665.50;5054242;28;20198;-58
2023/05/16 08:48:33;;;;;;;3.95;2.97;;;15.20;99.90;;;-141.84;54.20;20653.28;5053315;28;20276;-57
2023/05/16 08:51:07;;;;;;;4.25;2.40;;;15.10;99.90;;;-141.84;55.26;20655.31;5053316;28;20241;-55
2023/05/16 08:53:45;;;;;;;3.67;2.80;;;14.90;99.90;;;-141.84;55.40;20649.22;5046710;28;20624;-56
2023/05/16 08:56:16;;;;;;;2.60;2.40;;;15.00;99.90;;;-141.84;54.81;20628.91;5039059;28;20641;-56
2023/05/16 08:58:45;;;;;;;2.40;2.20;;;14.90;99.90;;;-141.84;55.05;20594.34;5053857;28;20205;-57
2023/05/16 09:01:14;;;;;;;2.58;2.38;;;14.90;99.90;;;-141.84;54.88;20651.25;5053817;28;20666;-58
2023/05/16 09:03:43;;;;;;;2.83;2.00;;;14.80;99.90;;;-141.84;55.12;20637.03;5053429;28;20695;-58
2023/05/16 09:06:13;;;;;;;4.40;2.45;;;14.70;99.90;;;-141.84;54.89;20632.97;5073064;28;20201;-56
2023/05/16 09:08:42;;;;;;;4.07;2.00;;;14.80;99.90;;;-141.84;54.38;20702.09;5041051;28;20284;-57
2023/05/16 09:11:10;;;;;;;2.85;2.20;;;15.00;99.90;;;-141.84;54.55;20698.00;5042594;28;20260;-56
2023/05/16 09:13:39;;;;;;;2.70;2.00;;;15.10;99.90;;;-141.84;53.56;20756.97;5032654;28;20268;-58
2023/05/16 09:16:13;;;;;;;2.60;2.03;;;15.30;99.90;;;-141.84;53.65;20716.31;5044699;28;20201;-55
2023/05/16 09:18:44;;;;;;;2.60;2.40;;;15.30;99.90;;;-141.84;54.44;20647.19;5039208;28;20240;-59
2023/05/16 09:21:15;;;;;;;2.65;2.25;;;15.20;99.90;;;-141.84;55.80;20549.63;5052838;28;20197;-58
2023/05/16 09:23:45;;;;;;;2.75;2.35;;;14.70;99.90;;;-141.84;55.82;20513.03;5038984;28;20205;-58
2023/05/16 09:26:13;;;;;;;3.88;2.40;;;14.40;99.90;;;-141.84;56.45;20474.41;5043662;28;20206;-57
2023/05/16 09:28:43;;;;;;;5.10;2.50;;;14.30;99.90;;;-141.84;56.82;20492.72;5033224;28;20202;-58
2023/05/16 09:31:23;;;;;;;2.70;2.30;;;14.20;99.90;;;-141.84;54.87;20571.97;5032868;28;20313;-57
2023/05/16 09:33:52;;;;;;;4.65;2.10;;;14.40;99.90;;;-141.84;55.02;20592.31;5032839;28;20190;-58
2023/05/16 09:36:21;;;;;;;2.55;2.35;;;14.50;99.90;;;-141.84;53.90;20630.94;5072296;28;20284;-56
2023/05/16 09:38:52;;;;;;;3.65;2.33;;;14.70;99.90;;;-141.84;54.48;20574.00;5072412;28;20250;-57
2023/05/16 09:41:22;;;;;;;5.70;2.60;;;14.60;99.90;;;-141.84;55.39;20519.13;5073092;28;20208;-57
2023/05/16 09:43:50;;;;;;;5.40;2.50;;;14.50;99.90;;;-141.84;55.80;20508.97;5072587;28;20296;-58
2023/05/16 09:46:27;;;;;;;2.72;2.20;;;14.40;99.90;;;-141.84;56.68;20482.53;5072870;28;20624;-57
2023/05/16 09:48:56;;;;;;;2.72;2.50;;;14.20;99.90;;;-141.84;57.14;20433.75;5066959;28;20290;-59
2023/05/16 09:51:26;;;;;;;4.00;1.88;;;14.10;99.90;;;-141.84;56.37;20482.53;5037009;28;20218;-58
2023/05/16 09:53:55;;;;;;;2.83;1.95;;;14.10;99.90;;;-141.84;56.24;20456.13;5051427;28;20749;-57
2023/05/16 09:56:23;;;;;;;3.17;1.88;;;14.00;99.90;;;-141.84;56.75;20421.56;5046967;28;20424;-59
2023/05/16 09:58:52;;;;;;;2.60;1.63;;;13.90;99.90;;;-141.84;56.86;20393.09;5052272;28;20240;-60
2023/05/16 10:01:21;;;;;;;3.70;1.67;;;13.80;99.90;;;-141.84;57.53;20382.94;5052428;28;20205;-58
2023/05/16 10:03:51;;;;;;;5.15;2.03;;;13.60;99.90;;;-141.84;57.15;20391.06;5044486;28;20198;-56
2023/05/16 10:06:21;;;;;;;4.60;1.80;;;13.50;99.90;;;-141.84;57.29;20411.41;5032530;28;20225;-56
2023/05/16 10:08:51;;;;;;;3.67;1.70;;;13.60;99.90;;;-141.84;57.04;20401.22;5031979;28;20205;-58